• Join FlightAware (Why Join?)
  • Login
  • US Flag 
12:44PM EDT


 

Airport Tracker/Info


-or-


 

Live Flight TrackerFlight Track Log ✈ DAL6034 ✈ 13-Mar-2014 ✈ KLGA - KMHT

Flight Track Log - Related Links

Times and Time Zones

All times are in EDT time to prevent confusion due to time zone crossing. See the DAL6034 flight status page for this flight to view local times or setup timezone preferences in your user account.

Time Position Orientation Groundspeed Altitude Reporting Facility
EDT Latitude Longitude Course Direction KTS MPH feet Rate Location/Type
08:07PM 40.7833 -73.8833 40° Northeast 135 155 1,000  Level New York TRACON
08:09PM 40.8842 -73.8608 North 199 229 6,900 2,460 Climbing Boston Center
08:10PM 41.0688 -73.5557 39° Northeast  Level Estimated
08:10PM 40.9014 -73.7619 77° East 227 261 9,500  Level Boston Center
08:11PM 41.1416 -73.4761 39° Northeast  Level Estimated
08:11PM 40.9589 -73.7158 31° Northeast 240 276 10,500  Level Boston Center
08:12PM 41.2143 -73.3962 40° Northeast  Level Estimated
08:12PM 41.0228 -73.6675 30° Northeast 255 293 13,000  Level Boston Center
08:13PM 41.0864 -73.6181 30° Northeast 262 302 14,000 480 Climbing Boston Center
08:14PM 41.1533 -73.5661 30° Northeast 277 319 14,000  Level Boston Center
08:15PM 41.2200 -73.5158 30° Northeast 276 318 14,000 480 Level Boston Center
08:16PM 41.2892 -73.4619 30° Northeast 270 311 15,000 1,320 Climbing Boston Center
08:17PM 41.3503 -73.4147 30° Northeast 257 296 16,800 960 Climbing Boston Center
08:18PM 41.4158 -73.3642 30° Northeast 271 312 17,000 60 Climbing Boston Center
08:19PM 41.4864 -73.3064 32° Northeast 293 337 17,000 -60 Level Boston Center
08:20PM 41.5494 -73.2225 45° Northeast 322 371 16,900 -60 Descending Boston Center
08:21PM 41.6217 -73.1406 40° Northeast 314 361 16,900  Level Boston Center
08:22PM 41.6953 -73.0853 29° Northeast 304 350 17,000  Climbing Boston Center
08:23PM 41.7772 -73.0906 357° North 292 336 16,900 -60 Descending Boston Center
08:24PM 41.8575 -73.1058 352° North 291 335 16,900  Level Boston Center
08:25PM 41.9369 -73.1222 351° North 290 334 16,900  Level Boston Center
08:26PM 42.0217 -73.1381 352° North 286 329 17,000  Climbing Boston Center
08:27PM 42.1014 -73.1564 350° North 289 333 17,000 -60 Level Boston Center
08:29PM 42.1864 -73.1731 352° North 308 354 16,900 -60 Descending Boston Center
08:30PM 42.2717 -73.1911 351° North 310 357 16,900  Level Boston Center
08:31PM 42.3589 -73.2106 351° North 309 356 16,900  Level Boston Center
08:32PM 42.4458 -73.2306 350° North 315 362 16,900  Level Boston Center
08:33PM 42.5414 -73.2492 352° North 323 372 16,900  Level Boston Center
08:34PM 42.6311 -73.2672 352° North 326 375 17,000  Climbing Boston Center
08:35PM 42.7172 -73.2861 351° North 316 364 17,000  Level Boston Center
08:36PM 42.8031 -73.3033 352° North 311 358 17,000 60 Level Boston Center
08:37PM 42.8925 -73.3167 354° North 303 349 17,200 60 Climbing Boston Center
08:38PM 42.9603 -73.2403 40° Northeast 327 376 17,200  Level Boston Center
08:39PM 42.9631 -73.1056 88° East 370 426 17,200 -60 Level Boston Center
08:40PM 42.9489 -72.9714 98° East 372 428 17,100 -60 Descending Boston Center
08:41PM 42.9325 -72.8314 99° East 371 427 17,100 -360 Level Boston Center
08:42PM 42.9164 -72.6925 99° East 372 428 16,400 -1,260 Descending Boston Center
08:43PM 42.9003 -72.5583 99° East 364 419 14,600 -1,200 Descending Boston Center
08:44PM 42.8592 -72.4411 116° Southeast 369 425 14,000 -300 Descending Boston Center
08:45PM 42.7778 -72.3619 144° Southeast 361 415 14,000 -300 Level Boston Center
08:46PM 42.6958 -72.2853 145° Southeast 356 410 13,400 -720 Descending Boston Center
08:47PM 42.6072 -72.2017 145° Southeast 348 400 12,600 -1,140 Descending Boston Center
08:48PM 42.5233 -72.1222 145° Southeast 343 395 11,100 -1,500 Descending Boston Center
08:49PM 42.5172 -72.0239 95° East 272 313 9,600 -1,680 Descending Boston Center
08:50PM 42.5483 -71.9417 63° Northeast 246 283 7,700 -1,860 Descending Boston Center
08:51PM 42.5744 -71.8636 66° East 227 261 5,900 -1,620 Descending Boston Center
08:52PM 42.5992 -71.7928 65° Northeast 195 224 4,500 -960 Descending Boston Center
08:53PM 42.6225 -71.7239 65° Northeast 200 230 4,000 -540 Descending Boston Center
08:54PM 42.6442 -71.6556 67° East 197 227 3,400 -540 Descending Boston Center
08:55PM 42.6669 -71.5903 65° Northeast 192 221 3,000 -240 Descending Boston Center
08:56PM 42.6917 -71.5183 65° Northeast 196 226 3,000 -480 Level Boston Center
08:57PM 42.7228 -71.4597 54° Northeast 191 220 2,100 -540 Descending Boston Center
08:58PM 42.7542 -71.4033 53° Northeast 188 216 2,000 -60 Descending Boston Center
08:59PM 42.7942 -71.3667 34° Northeast 174 200 2,000  Level Boston Center
09:00PM 42.8361 -71.3772 350° North 157 181 2,000 -300 Level Boston Center
09:01PM 42.8717 -71.3981 337° Northwest 132 152 1,400 -660 Descending Boston Center
09:02PM 42.9036 -71.4172 336° Northwest 126 145 700 -540 Descending Boston Center
09:03PM 42.9356 -71.4375 335° Northwest 128 147 400 -300 Descending Boston Center